KBAC

Barnes County Municipal Airport

Valley City, North Dakota, USA
METAR KBAC 230935Z AUTO 34004KT 10SM FEW020 M06/M06 A3039 RMK AO2
Observed Flight Rules
Oct-23 @ 09:35 UTC (5 minutes ago) Visual Flight Rules
Wind Visibility Clouds
340° at 4 knots 10 miles
  • Few at 2,000' AGL
Temperatures Readings
Current -6°C / 21°F
Dewpoint -6°C / 21°F
Humidity 100%
Altimeter 30.39" Hg
Pressure 1029 hPa
Elevation 427
METAR KBAC 230935Z AUTO 34004KT 10SM FEW020 M06/M06 A3039 RMK AO2
Observed Flight Rules
Oct-23 @ 09:35 UTC
(5 minutes ago)
VFR
Wind Visibility
340° at 4 knots 10 miles
Clouds
  • Few at 2,000' AGL
Temperature Dewpoint
-6°C / 21°F -6°C / 21°F
Humidity Altimeter Pressure
100% 30.39" Hg 1029 hPa